JST725 YSSY-YMHB
Flight info
| Callsign | JST725 |
|---|---|
| Flight time | 1h 32m |
| Altitude | 38000 |
| Route | MARUB7/34R WOL H20 MOTRA W407 TASUM |
| Aircraft | A20N/M-SDE2E3FGHIRWXY/LB1 |
Departure
| Time | 2026-04-26 09:01 |
|---|---|
| Airport | Sydney Kingsford Smith International Airport (YSSY) |
Arrival
| Time | 2026-04-26 10:34 |
|---|---|
| Airport | Hobart International Airport (YMHB) |
| Time | Latitude | Longitude | Altitude | Speed | Heading |
|---|---|---|---|---|---|
| 2026-04-26 08:37 | -33.93485 | 151.17771 | 30 ft | 0 kts | 279° |
| 2026-04-26 08:45 | -33.93485 | 151.17773 | 30 ft | 2 kts | 279° |
| 2026-04-26 08:45 | -33.93489 | 151.17795 | 30 ft | 3 kts | 279° |
| 2026-04-26 08:45 | -33.93492 | 151.17818 | 30 ft | 3 kts | 261° |
| 2026-04-26 08:46 | -33.93489 | 151.17839 | 30 ft | 3 kts | 224° |
| 2026-04-26 08:46 | -33.93473 | 151.17848 | 30 ft | 2 kts | 187° |
| 2026-04-26 08:46 | -33.93470 | 151.17848 | 30 ft | 0 kts | 187° |
| 2026-04-26 08:49 | -33.93472 | 151.17848 | 30 ft | 0 kts | 187° |
| 2026-04-26 08:49 | -33.93478 | 151.17847 | 30 ft | 3 kts | 187° |
| 2026-04-26 08:50 | -33.93507 | 151.17843 | 30 ft | 6 kts | 187° |
| 2026-04-26 08:50 | -33.93559 | 151.17832 | 30 ft | 9 kts | 191° |
| 2026-04-26 08:50 | -33.93625 | 151.17816 | 30 ft | 11 kts | 191° |
| 2026-04-26 08:50 | -33.93704 | 151.17798 | 30 ft | 12 kts | 191° |
| 2026-04-26 08:51 | -33.93840 | 151.17765 | 30 ft | 12 kts | 175° |
| 2026-04-26 08:51 | -33.93929 | 151.17787 | 29 ft | 14 kts | 167° |
| 2026-04-26 08:51 | -33.94032 | 151.17815 | 29 ft | 16 kts | 167° |
| 2026-04-26 08:52 | -33.94144 | 151.17845 | 29 ft | 17 kts | 168° |
| 2026-04-26 08:52 | -33.94260 | 151.17873 | 30 ft | 17 kts | 169° |
| 2026-04-26 08:52 | -33.94381 | 151.17905 | 30 ft | 18 kts | 168° |
| 2026-04-26 08:52 | -33.94498 | 151.17886 | 30 ft | 18 kts | 194° |
| 2026-04-26 08:53 | -33.94621 | 151.17906 | 30 ft | 18 kts | 167° |
| 2026-04-26 08:53 | -33.94746 | 151.17939 | 30 ft | 19 kts | 167° |
| 2026-04-26 08:53 | -33.94877 | 151.17974 | 30 ft | 20 kts | 167° |
| 2026-04-26 08:53 | -33.95009 | 151.18009 | 30 ft | 16 kts | 167° |
| 2026-04-26 08:54 | -33.95098 | 151.18074 | 30 ft | 16 kts | 101° |
| 2026-04-26 08:54 | -33.95085 | 151.18187 | 30 ft | 11 kts | 78° |
| 2026-04-26 08:54 | -33.95069 | 151.18277 | 30 ft | 12 kts | 77° |
| 2026-04-26 08:54 | -33.95055 | 151.18351 | 30 ft | 7 kts | 77° |
| 2026-04-26 08:55 | -33.95049 | 151.18386 | 30 ft | 0 kts | 78° |
| 2026-04-26 08:55 | -33.95048 | 151.18390 | 30 ft | 1 kts | 78° |
| 2026-04-26 08:55 | -33.95044 | 151.18415 | 30 ft | 5 kts | 78° |
| 2026-04-26 08:55 | -33.95049 | 151.18481 | 30 ft | 11 kts | 115° |
| 2026-04-26 08:56 | -33.95118 | 151.18546 | 30 ft | 14 kts | 143° |
| 2026-04-26 08:56 | -33.95168 | 151.18600 | 30 ft | 15 kts | 137° |
| 2026-04-26 08:56 | -33.95284 | 151.18701 | 30 ft | 17 kts | 156° |
| 2026-04-26 08:56 | -33.95398 | 151.18739 | 30 ft | 18 kts | 169° |
| 2026-04-26 08:57 | -33.95521 | 151.18772 | 30 ft | 19 kts | 168° |
| 2026-04-26 08:57 | -33.95649 | 151.18807 | 30 ft | 19 kts | 168° |
| 2026-04-26 08:57 | -33.95780 | 151.18840 | 30 ft | 20 kts | 168° |
| 2026-04-26 08:57 | -33.95915 | 151.18876 | 30 ft | 20 kts | 168° |
| 2026-04-26 08:58 | -33.96053 | 151.18912 | 30 ft | 20 kts | 167° |
| 2026-04-26 08:58 | -33.96146 | 151.18935 | 30 ft | 21 kts | 168° |
| 2026-04-26 08:58 | -33.96335 | 151.18982 | 30 ft | 21 kts | 168° |
| 2026-04-26 08:58 | -33.96480 | 151.19020 | 30 ft | 21 kts | 167° |
| 2026-04-26 08:59 | -33.96576 | 151.19046 | 30 ft | 21 kts | 167° |
| 2026-04-26 08:59 | -33.96724 | 151.19071 | 30 ft | 22 kts | 186° |
| 2026-04-26 08:59 | -33.96871 | 151.19078 | 30 ft | 21 kts | 167° |
| 2026-04-26 08:59 | -33.97015 | 151.19116 | 30 ft | 18 kts | 167° |
| 2026-04-26 09:00 | -33.97101 | 151.19146 | 30 ft | 12 kts | 153° |
| 2026-04-26 09:00 | -33.97120 | 151.19220 | 29 ft | 8 kts | 85° |
| 2026-04-26 09:00 | -33.97112 | 151.19271 | 28 ft | 8 kts | 77° |
| 2026-04-26 09:00 | -33.97079 | 151.19353 | 26 ft | 12 kts | 40° |
| 2026-04-26 09:01 | -33.97005 | 151.19359 | 24 ft | 13 kts | 347° |
| 2026-04-26 09:01 | -33.96761 | 151.19295 | 23 ft | 75 kts | 348° |
| 2026-04-26 09:01 | -33.95993 | 151.19095 | 47 ft | 144 kts | 351° |
| 2026-04-26 09:01 | -33.94986 | 151.18852 | 786 ft | 151 kts | 354° |
| 2026-04-26 09:02 | -33.93987 | 151.19126 | 1616 ft | 154 kts | 41° |
| 2026-04-26 09:02 | -33.93550 | 151.20350 | 2222 ft | 177 kts | 86° |
| 2026-04-26 09:02 | -33.93620 | 151.21927 | 2613 ft | 199 kts | 90° |
| 2026-04-26 09:02 | -33.93679 | 151.23697 | 2979 ft | 224 kts | 89° |
| 2026-04-26 09:03 | -33.93701 | 151.25676 | 3475 ft | 248 kts | 88° |
| 2026-04-26 09:03 | -33.93693 | 151.27806 | 4116 ft | 264 kts | 88° |
| 2026-04-26 09:03 | -33.93661 | 151.30044 | 4886 ft | 271 kts | 88° |
| 2026-04-26 09:03 | -33.93608 | 151.32330 | 5845 ft | 275 kts | 88° |
| 2026-04-26 09:04 | -33.93547 | 151.34640 | 6836 ft | 278 kts | 88° |
| 2026-04-26 09:04 | -33.93489 | 151.36978 | 7777 ft | 281 kts | 88° |
| 2026-04-26 09:04 | -33.93423 | 151.39339 | 8731 ft | 283 kts | 88° |
| 2026-04-26 09:04 | -33.93348 | 151.41720 | 9701 ft | 286 kts | 87° |
| 2026-04-26 09:05 | -33.93274 | 151.44138 | 10464 ft | 297 kts | 88° |
| 2026-04-26 09:05 | -33.93198 | 151.46719 | 10863 ft | 316 kts | 88° |
| 2026-04-26 09:05 | -33.93217 | 151.49393 | 11599 ft | 323 kts | 99° |
| 2026-04-26 09:05 | -33.93970 | 151.51944 | 12404 ft | 328 kts | 118° |
| 2026-04-26 09:06 | -33.95300 | 151.54183 | 13254 ft | 332 kts | 133° |
| 2026-04-26 09:06 | -33.97149 | 151.55883 | 14063 ft | 338 kts | 153° |
| 2026-04-26 09:06 | -33.99416 | 151.56624 | 14762 ft | 344 kts | 177° |
| 2026-04-26 09:06 | -34.01785 | 151.56180 | 15471 ft | 350 kts | 201° |
| 2026-04-26 09:07 | -34.03842 | 151.54598 | 16170 ft | 356 kts | 224° |
| 2026-04-26 09:07 | -34.05483 | 151.52339 | 16848 ft | 361 kts | 230° |
| 2026-04-26 09:07 | -34.07086 | 151.49993 | 17593 ft | 364 kts | 230° |
| 2026-04-26 09:07 | -34.08694 | 151.47651 | 18263 ft | 370 kts | 229° |
| 2026-04-26 09:08 | -34.10349 | 151.45263 | 18932 ft | 373 kts | 229° |
| 2026-04-26 09:08 | -34.12026 | 151.42841 | 19531 ft | 377 kts | 229° |
| 2026-04-26 09:08 | -34.13710 | 151.40401 | 20187 ft | 380 kts | 229° |
| 2026-04-26 09:08 | -34.15411 | 151.37944 | 20792 ft | 384 kts | 229° |
| 2026-04-26 09:09 | -34.17131 | 151.35465 | 21451 ft | 386 kts | 229° |
| 2026-04-26 09:09 | -34.18863 | 151.32963 | 22087 ft | 389 kts | 230° |
| 2026-04-26 09:09 | -34.20607 | 151.30442 | 22720 ft | 393 kts | 229° |
| 2026-04-26 09:09 | -34.22365 | 151.27898 | 23350 ft | 396 kts | 229° |
| 2026-04-26 09:10 | -34.24136 | 151.25322 | 23936 ft | 400 kts | 230° |
| 2026-04-26 09:10 | -34.25921 | 151.22724 | 24469 ft | 403 kts | 229° |
| 2026-04-26 09:10 | -34.27726 | 151.20112 | 24994 ft | 406 kts | 229° |
| 2026-04-26 09:10 | -34.29541 | 151.17491 | 25525 ft | 408 kts | 230° |
| 2026-04-26 09:11 | -34.31355 | 151.14836 | 26050 ft | 410 kts | 229° |
| 2026-04-26 09:11 | -34.33177 | 151.12174 | 26554 ft | 412 kts | 229° |
| 2026-04-26 09:11 | -34.35019 | 151.09501 | 27053 ft | 414 kts | 229° |
| 2026-04-26 09:11 | -34.36870 | 151.06819 | 27521 ft | 416 kts | 230° |
| 2026-04-26 09:12 | -34.38721 | 151.04116 | 27980 ft | 418 kts | 230° |
| 2026-04-26 09:12 | -34.40580 | 151.01390 | 28442 ft | 421 kts | 230° |
| 2026-04-26 09:12 | -34.42429 | 150.98687 | 28875 ft | 423 kts | 229° |
| 2026-04-26 09:12 | -34.44312 | 150.95944 | 29301 ft | 425 kts | 230° |
| 2026-04-26 09:13 | -34.46203 | 150.93183 | 29712 ft | 427 kts | 230° |
| 2026-04-26 09:13 | -34.48098 | 150.90399 | 30103 ft | 429 kts | 230° |
| 2026-04-26 09:13 | -34.49998 | 150.87601 | 30458 ft | 431 kts | 230° |
| 2026-04-26 09:13 | -34.51917 | 150.84794 | 30808 ft | 433 kts | 230° |
| 2026-04-26 09:14 | -34.53842 | 150.81986 | 31122 ft | 434 kts | 228° |
| 2026-04-26 09:14 | -34.55972 | 150.79393 | 31435 ft | 435 kts | 219° |
| 2026-04-26 09:14 | -34.58448 | 150.77292 | 31735 ft | 436 kts | 209° |
| 2026-04-26 09:14 | -34.61122 | 150.75534 | 32023 ft | 437 kts | 208° |
| 2026-04-26 09:15 | -34.63811 | 150.73777 | 32316 ft | 439 kts | 208° |
| 2026-04-26 09:15 | -34.66497 | 150.72009 | 32617 ft | 440 kts | 208° |
| 2026-04-26 09:15 | -34.69192 | 150.70233 | 32896 ft | 441 kts | 208° |
| 2026-04-26 09:15 | -34.71892 | 150.68442 | 33163 ft | 443 kts | 208° |
| 2026-04-26 09:16 | -34.74598 | 150.66643 | 33413 ft | 444 kts | 208° |
| 2026-04-26 09:16 | -34.77312 | 150.64837 | 33730 ft | 444 kts | 208° |
| 2026-04-26 09:16 | -34.80018 | 150.63042 | 34128 ft | 442 kts | 208° |
| 2026-04-26 09:16 | -34.82714 | 150.61240 | 34423 ft | 442 kts | 208° |
| 2026-04-26 09:17 | -34.85403 | 150.59445 | 34693 ft | 441 kts | 208° |
| 2026-04-26 09:17 | -34.88099 | 150.57654 | 34964 ft | 441 kts | 208° |
| 2026-04-26 09:17 | -34.90754 | 150.55888 | 35198 ft | 441 kts | 209° |
| 2026-04-26 09:17 | -34.93459 | 150.54107 | 35426 ft | 441 kts | 206° |
| 2026-04-26 09:18 | -34.96293 | 150.52682 | 35648 ft | 442 kts | 198° |
| 2026-04-26 09:18 | -34.99269 | 150.51720 | 35882 ft | 443 kts | 194° |
| 2026-04-26 09:18 | -35.02267 | 150.50850 | 36100 ft | 443 kts | 194° |
| 2026-04-26 09:18 | -35.05264 | 150.49963 | 36319 ft | 443 kts | 194° |
| 2026-04-26 09:19 | -35.08257 | 150.49076 | 36537 ft | 443 kts | 195° |
| 2026-04-26 09:19 | -35.11259 | 150.48181 | 36742 ft | 444 kts | 195° |
| 2026-04-26 09:19 | -35.14258 | 150.47291 | 36943 ft | 444 kts | 194° |
| 2026-04-26 09:19 | -35.17260 | 150.46396 | 37154 ft | 444 kts | 194° |
| 2026-04-26 09:20 | -35.20260 | 150.45508 | 37356 ft | 444 kts | 195° |
| 2026-04-26 09:20 | -35.23265 | 150.44599 | 37582 ft | 444 kts | 195° |
| 2026-04-26 09:20 | -35.26262 | 150.43706 | 37798 ft | 444 kts | 194° |
| 2026-04-26 09:20 | -35.29265 | 150.42816 | 38001 ft | 444 kts | 195° |
| 2026-04-26 09:21 | -35.32263 | 150.41911 | 38174 ft | 444 kts | 195° |
| 2026-04-26 09:21 | -35.38229 | 150.40123 | 38247 ft | 444 kts | 195° |
| 2026-04-26 09:22 | -35.44224 | 150.38330 | 38231 ft | 444 kts | 195° |
| 2026-04-26 09:22 | -35.50219 | 150.36525 | 38237 ft | 444 kts | 195° |
| 2026-04-26 09:23 | -35.56219 | 150.34726 | 38239 ft | 443 kts | 195° |
| 2026-04-26 09:23 | -35.62218 | 150.32919 | 38230 ft | 443 kts | 195° |
| 2026-04-26 09:24 | -35.68212 | 150.31111 | 38223 ft | 444 kts | 195° |
| 2026-04-26 09:24 | -35.74207 | 150.29292 | 38227 ft | 444 kts | 195° |
| 2026-04-26 09:25 | -35.80205 | 150.27495 | 38228 ft | 444 kts | 195° |
| 2026-04-26 09:25 | -35.86209 | 150.25666 | 38228 ft | 444 kts | 195° |
| 2026-04-26 09:26 | -35.92204 | 150.23842 | 38233 ft | 444 kts | 196° |
| 2026-04-26 09:26 | -35.98169 | 150.22027 | 38236 ft | 444 kts | 196° |
| 2026-04-26 09:27 | -36.04164 | 150.20197 | 38237 ft | 444 kts | 195° |
| 2026-04-26 09:27 | -36.10171 | 150.18365 | 38240 ft | 444 kts | 196° |
| 2026-04-26 09:28 | -36.16170 | 150.16541 | 38242 ft | 444 kts | 195° |
| 2026-04-26 09:28 | -36.22169 | 150.14700 | 38248 ft | 444 kts | 195° |
| 2026-04-26 09:29 | -36.28157 | 150.12862 | 38251 ft | 443 kts | 195° |
| 2026-04-26 09:29 | -36.34146 | 150.11022 | 38253 ft | 443 kts | 195° |
| 2026-04-26 09:30 | -36.40127 | 150.09191 | 38256 ft | 443 kts | 195° |
| 2026-04-26 09:30 | -36.46110 | 150.07348 | 38248 ft | 443 kts | 195° |
| 2026-04-26 09:31 | -36.52087 | 150.05499 | 38251 ft | 442 kts | 195° |
| 2026-04-26 09:31 | -36.58061 | 150.03656 | 38254 ft | 442 kts | 196° |
| 2026-04-26 09:32 | -36.64032 | 150.01807 | 38254 ft | 442 kts | 196° |
| 2026-04-26 09:32 | -36.69953 | 149.99965 | 38249 ft | 442 kts | 195° |
| 2026-04-26 09:33 | -36.75917 | 149.98109 | 38248 ft | 442 kts | 195° |
| 2026-04-26 09:33 | -36.81883 | 149.96269 | 38253 ft | 442 kts | 195° |
| 2026-04-26 09:34 | -36.87845 | 149.94420 | 38250 ft | 441 kts | 196° |
| 2026-04-26 09:34 | -36.93801 | 149.92545 | 38257 ft | 441 kts | 196° |
| 2026-04-26 09:35 | -36.99758 | 149.90692 | 38254 ft | 441 kts | 196° |
| 2026-04-26 09:35 | -37.05707 | 149.88828 | 38255 ft | 441 kts | 196° |
| 2026-04-26 09:36 | -37.11655 | 149.86970 | 38260 ft | 440 kts | 196° |
| 2026-04-26 09:36 | -37.17595 | 149.85109 | 38263 ft | 440 kts | 196° |
| 2026-04-26 09:37 | -37.23531 | 149.83228 | 38258 ft | 440 kts | 197° |
| 2026-04-26 09:37 | -37.29467 | 149.81371 | 38266 ft | 440 kts | 196° |
| 2026-04-26 09:38 | -37.35359 | 149.79505 | 38251 ft | 439 kts | 197° |
| 2026-04-26 09:38 | -37.41283 | 149.77638 | 38248 ft | 439 kts | 196° |
| 2026-04-26 09:39 | -37.47216 | 149.75760 | 38254 ft | 439 kts | 197° |
| 2026-04-26 09:39 | -37.53142 | 149.73882 | 38246 ft | 439 kts | 197° |
| 2026-04-26 09:40 | -37.59068 | 149.71994 | 38244 ft | 439 kts | 197° |
| 2026-04-26 09:40 | -37.64935 | 149.69891 | 38249 ft | 438 kts | 199° |
| 2026-04-26 09:41 | -37.70800 | 149.67745 | 38244 ft | 439 kts | 199° |
| 2026-04-26 09:41 | -37.76672 | 149.65602 | 38235 ft | 439 kts | 198° |
| 2026-04-26 09:42 | -37.82541 | 149.63463 | 38231 ft | 439 kts | 198° |
| 2026-04-26 09:42 | -37.88411 | 149.61315 | 38230 ft | 439 kts | 199° |
| 2026-04-26 09:43 | -37.94284 | 149.59150 | 38226 ft | 440 kts | 199° |
| 2026-04-26 09:43 | -38.00129 | 149.57018 | 38223 ft | 440 kts | 199° |
| 2026-04-26 09:44 | -38.06014 | 149.54843 | 38226 ft | 441 kts | 199° |
| 2026-04-26 09:44 | -38.11908 | 149.52674 | 38221 ft | 441 kts | 199° |
| 2026-04-26 09:45 | -38.17809 | 149.50503 | 38213 ft | 442 kts | 199° |
| 2026-04-26 09:45 | -38.23712 | 149.48318 | 38221 ft | 442 kts | 199° |
| 2026-04-26 09:46 | -38.29624 | 149.46122 | 38214 ft | 443 kts | 199° |
| 2026-04-26 09:46 | -38.35539 | 149.43916 | 38213 ft | 443 kts | 199° |
| 2026-04-26 09:47 | -38.41461 | 149.41729 | 38219 ft | 443 kts | 199° |
| 2026-04-26 09:47 | -38.47388 | 149.39533 | 38216 ft | 444 kts | 199° |
| 2026-04-26 09:48 | -38.53316 | 149.37307 | 38216 ft | 444 kts | 199° |
| 2026-04-26 09:48 | -38.59243 | 149.35088 | 38216 ft | 444 kts | 199° |
| 2026-04-26 09:49 | -38.65145 | 149.32893 | 38220 ft | 444 kts | 199° |
| 2026-04-26 09:49 | -38.71076 | 149.30679 | 38217 ft | 444 kts | 199° |
| 2026-04-26 09:50 | -38.77006 | 149.28446 | 38225 ft | 444 kts | 200° |
| 2026-04-26 09:50 | -38.82932 | 149.26209 | 38222 ft | 444 kts | 200° |
| 2026-04-26 09:51 | -38.88866 | 149.23979 | 38219 ft | 444 kts | 199° |
| 2026-04-26 09:51 | -38.94788 | 149.21736 | 38225 ft | 444 kts | 200° |
| 2026-04-26 09:52 | -39.00715 | 149.19495 | 38220 ft | 444 kts | 200° |
| 2026-04-26 09:52 | -39.09596 | 149.16136 | 38218 ft | 443 kts | 200° |
| 2026-04-26 09:53 | -39.15478 | 149.13916 | 38227 ft | 443 kts | 200° |
| 2026-04-26 09:53 | -39.21381 | 149.11640 | 38221 ft | 443 kts | 200° |
| 2026-04-26 09:54 | -39.27294 | 149.09395 | 38215 ft | 443 kts | 200° |
| 2026-04-26 09:54 | -39.33202 | 149.07146 | 38222 ft | 442 kts | 200° |
| 2026-04-26 09:55 | -39.39105 | 149.04888 | 38215 ft | 442 kts | 200° |
| 2026-04-26 09:55 | -39.44003 | 149.03004 | 38209 ft | 442 kts | 200° |
| 2026-04-26 09:56 | -39.49896 | 149.00754 | 38225 ft | 441 kts | 200° |
| 2026-04-26 09:56 | -39.55777 | 148.98493 | 38218 ft | 441 kts | 200° |
| 2026-04-26 09:57 | -39.61650 | 148.96228 | 38215 ft | 440 kts | 200° |
| 2026-04-26 09:57 | -39.67520 | 148.93963 | 38219 ft | 439 kts | 200° |
| 2026-04-26 09:58 | -39.73371 | 148.91697 | 38209 ft | 439 kts | 200° |
| 2026-04-26 09:58 | -39.79220 | 148.89442 | 38196 ft | 438 kts | 200° |
| 2026-04-26 09:59 | -39.85017 | 148.87179 | 38205 ft | 438 kts | 199° |
| 2026-04-26 09:59 | -39.90847 | 148.84911 | 38205 ft | 437 kts | 199° |
| 2026-04-26 10:00 | -39.96680 | 148.82642 | 38198 ft | 437 kts | 199° |
| 2026-04-26 10:00 | -40.02510 | 148.80380 | 38195 ft | 437 kts | 199° |
| 2026-04-26 10:01 | -40.08345 | 148.78115 | 38188 ft | 437 kts | 200° |
| 2026-04-26 10:01 | -40.14171 | 148.75824 | 38193 ft | 437 kts | 199° |
| 2026-04-26 10:02 | -40.19998 | 148.73531 | 38190 ft | 437 kts | 199° |
| 2026-04-26 10:02 | -40.25833 | 148.71241 | 38183 ft | 438 kts | 199° |
| 2026-04-26 10:03 | -40.31664 | 148.68938 | 38171 ft | 438 kts | 199° |
| 2026-04-26 10:03 | -40.37457 | 148.66648 | 38169 ft | 438 kts | 199° |
| 2026-04-26 10:04 | -40.43291 | 148.64347 | 38168 ft | 438 kts | 199° |
| 2026-04-26 10:04 | -40.49126 | 148.62038 | 38178 ft | 438 kts | 199° |
| 2026-04-26 10:05 | -40.54959 | 148.59729 | 38172 ft | 438 kts | 199° |
| 2026-04-26 10:05 | -40.60803 | 148.57423 | 38165 ft | 438 kts | 199° |
| 2026-04-26 10:06 | -40.66637 | 148.55089 | 38172 ft | 438 kts | 199° |
| 2026-04-26 10:06 | -40.72472 | 148.52769 | 38166 ft | 438 kts | 199° |
| 2026-04-26 10:07 | -40.78269 | 148.50454 | 38157 ft | 438 kts | 199° |
| 2026-04-26 10:07 | -40.84107 | 148.48104 | 38156 ft | 438 kts | 199° |
| 2026-04-26 10:08 | -40.89939 | 148.45770 | 38152 ft | 438 kts | 199° |
| 2026-04-26 10:08 | -40.95778 | 148.43435 | 38150 ft | 438 kts | 199° |
| 2026-04-26 10:09 | -41.01610 | 148.41080 | 38150 ft | 438 kts | 200° |
| 2026-04-26 10:09 | -41.07447 | 148.38734 | 38146 ft | 438 kts | 200° |
| 2026-04-26 10:10 | -41.13283 | 148.36372 | 38142 ft | 438 kts | 200° |
| 2026-04-26 10:10 | -41.19124 | 148.34009 | 38148 ft | 439 kts | 200° |
| 2026-04-26 10:11 | -41.24931 | 148.31641 | 37713 ft | 439 kts | 200° |
| 2026-04-26 10:11 | -41.27866 | 148.30459 | 36949 ft | 442 kts | 200° |
| 2026-04-26 10:11 | -41.30813 | 148.29276 | 36302 ft | 442 kts | 200° |
| 2026-04-26 10:12 | -41.33754 | 148.28072 | 35603 ft | 443 kts | 202° |
| 2026-04-26 10:12 | -41.36655 | 148.26688 | 34923 ft | 443 kts | 205° |
| 2026-04-26 10:12 | -41.39555 | 148.25246 | 34200 ft | 446 kts | 206° |
| 2026-04-26 10:12 | -41.42473 | 148.23803 | 33387 ft | 449 kts | 205° |
| 2026-04-26 10:13 | -41.45402 | 148.22370 | 32661 ft | 449 kts | 205° |
| 2026-04-26 10:13 | -41.48346 | 148.20936 | 31882 ft | 451 kts | 205° |
| 2026-04-26 10:13 | -41.51293 | 148.19489 | 31085 ft | 453 kts | 205° |
| 2026-04-26 10:13 | -41.54264 | 148.18033 | 30260 ft | 456 kts | 205° |
| 2026-04-26 10:14 | -41.57250 | 148.16569 | 29306 ft | 458 kts | 205° |
| 2026-04-26 10:14 | -41.60236 | 148.15100 | 28434 ft | 458 kts | 205° |
| 2026-04-26 10:14 | -41.63223 | 148.13623 | 27735 ft | 455 kts | 205° |
| 2026-04-26 10:14 | -41.66176 | 148.12176 | 27132 ft | 450 kts | 205° |
| 2026-04-26 10:15 | -41.69111 | 148.10727 | 26488 ft | 447 kts | 205° |
| 2026-04-26 10:15 | -41.72018 | 148.09296 | 25838 ft | 444 kts | 205° |
| 2026-04-26 10:15 | -41.74907 | 148.07886 | 25196 ft | 441 kts | 205° |
| 2026-04-26 10:15 | -41.77739 | 148.06498 | 24572 ft | 438 kts | 205° |
| 2026-04-26 10:16 | -41.80585 | 148.05089 | 23914 ft | 435 kts | 205° |
| 2026-04-26 10:16 | -41.83410 | 148.03672 | 23198 ft | 432 kts | 205° |
| 2026-04-26 10:16 | -41.86214 | 148.02289 | 22581 ft | 428 kts | 205° |
| 2026-04-26 10:16 | -41.88996 | 148.00906 | 21924 ft | 423 kts | 205° |
| 2026-04-26 10:17 | -41.91740 | 147.99544 | 21283 ft | 419 kts | 205° |
| 2026-04-26 10:17 | -41.94463 | 147.98192 | 20648 ft | 416 kts | 205° |
| 2026-04-26 10:17 | -41.97168 | 147.96842 | 20015 ft | 413 kts | 205° |
| 2026-04-26 10:17 | -41.99853 | 147.95501 | 19367 ft | 411 kts | 205° |
| 2026-04-26 10:18 | -42.02528 | 147.94172 | 18725 ft | 409 kts | 205° |
| 2026-04-26 10:18 | -42.05184 | 147.92843 | 18041 ft | 407 kts | 205° |
| 2026-04-26 10:18 | -42.07833 | 147.91524 | 17404 ft | 405 kts | 205° |
| 2026-04-26 10:18 | -42.10465 | 147.90213 | 16776 ft | 402 kts | 206° |
| 2026-04-26 10:19 | -42.13077 | 147.88911 | 16140 ft | 398 kts | 206° |
| 2026-04-26 10:19 | -42.15664 | 147.87617 | 15518 ft | 396 kts | 206° |
| 2026-04-26 10:19 | -42.18237 | 147.86329 | 14893 ft | 393 kts | 206° |
| 2026-04-26 10:19 | -42.20797 | 147.85055 | 14282 ft | 391 kts | 207° |
| 2026-04-26 10:20 | -42.23333 | 147.83781 | 13613 ft | 387 kts | 207° |
| 2026-04-26 10:20 | -42.24998 | 147.82945 | 13182 ft | 384 kts | 207° |
| 2026-04-26 10:20 | -42.28312 | 147.81281 | 12369 ft | 375 kts | 207° |
| 2026-04-26 10:20 | -42.30741 | 147.80059 | 11774 ft | 369 kts | 207° |
| 2026-04-26 10:21 | -42.32990 | 147.78612 | 11166 ft | 357 kts | 218° |
| 2026-04-26 10:21 | -42.34905 | 147.76602 | 10635 ft | 341 kts | 231° |
| 2026-04-26 10:21 | -42.36369 | 147.74238 | 10538 ft | 316 kts | 242° |
| 2026-04-26 10:21 | -42.37480 | 147.71781 | 10434 ft | 298 kts | 246° |
| 2026-04-26 10:22 | -42.38496 | 147.69407 | 10318 ft | 286 kts | 246° |
| 2026-04-26 10:22 | -42.39470 | 147.67131 | 10155 ft | 275 kts | 247° |
| 2026-04-26 10:22 | -42.40416 | 147.64921 | 9896 ft | 269 kts | 247° |
| 2026-04-26 10:22 | -42.41346 | 147.62746 | 9605 ft | 266 kts | 247° |
| 2026-04-26 10:23 | -42.42268 | 147.60580 | 9345 ft | 266 kts | 246° |
| 2026-04-26 10:23 | -42.43190 | 147.58413 | 9078 ft | 265 kts | 247° |
| 2026-04-26 10:23 | -42.44105 | 147.56258 | 8809 ft | 263 kts | 246° |
| 2026-04-26 10:23 | -42.45021 | 147.54117 | 8546 ft | 262 kts | 246° |
| 2026-04-26 10:24 | -42.45932 | 147.51985 | 8289 ft | 261 kts | 246° |
| 2026-04-26 10:24 | -42.46835 | 147.49854 | 8030 ft | 260 kts | 246° |
| 2026-04-26 10:24 | -42.47730 | 147.47735 | 7772 ft | 259 kts | 246° |
| 2026-04-26 10:24 | -42.48630 | 147.45622 | 7518 ft | 258 kts | 246° |
| 2026-04-26 10:25 | -42.49524 | 147.43525 | 7276 ft | 257 kts | 246° |
| 2026-04-26 10:25 | -42.50411 | 147.41428 | 7004 ft | 257 kts | 245° |
| 2026-04-26 10:25 | -42.51305 | 147.39331 | 6745 ft | 256 kts | 246° |
| 2026-04-26 10:25 | -42.52193 | 147.37235 | 6484 ft | 255 kts | 246° |
| 2026-04-26 10:26 | -42.53068 | 147.35172 | 6225 ft | 249 kts | 246° |
| 2026-04-26 10:26 | -42.53919 | 147.33157 | 5976 ft | 244 kts | 245° |
| 2026-04-26 10:26 | -42.54754 | 147.31182 | 5731 ft | 238 kts | 245° |
| 2026-04-26 10:26 | -42.55661 | 147.29352 | 5507 ft | 240 kts | 233° |
| 2026-04-26 10:27 | -42.56983 | 147.27930 | 5266 ft | 247 kts | 216° |
| 2026-04-26 10:27 | -42.58496 | 147.26822 | 5047 ft | 246 kts | 213° |
| 2026-04-26 10:27 | -42.59989 | 147.25754 | 5000 ft | 236 kts | 214° |
| 2026-04-26 10:27 | -42.61449 | 147.24836 | 4991 ft | 230 kts | 199° |
| 2026-04-26 10:28 | -42.63029 | 147.24777 | 4994 ft | 228 kts | 172° |
| 2026-04-26 10:28 | -42.64490 | 147.25594 | 4970 ft | 230 kts | 150° |
| 2026-04-26 10:28 | -42.65720 | 147.27004 | 4717 ft | 234 kts | 137° |
| 2026-04-26 10:28 | -42.66872 | 147.28560 | 4436 ft | 232 kts | 137° |
| 2026-04-26 10:29 | -42.68013 | 147.30089 | 4084 ft | 227 kts | 137° |
| 2026-04-26 10:29 | -42.69111 | 147.31566 | 3795 ft | 220 kts | 137° |
| 2026-04-26 10:29 | -42.70177 | 147.33003 | 3514 ft | 209 kts | 137° |
| 2026-04-26 10:29 | -42.71186 | 147.34365 | 3226 ft | 201 kts | 137° |
| 2026-04-26 10:30 | -42.72142 | 147.35658 | 2980 ft | 187 kts | 139° |
| 2026-04-26 10:30 | -42.73036 | 147.36867 | 2723 ft | 178 kts | 137° |
| 2026-04-26 10:30 | -42.73892 | 147.38019 | 2491 ft | 168 kts | 139° |
| 2026-04-26 10:30 | -42.74699 | 147.39108 | 2277 ft | 161 kts | 138° |
| 2026-04-26 10:31 | -42.75487 | 147.40172 | 2067 ft | 158 kts | 138° |
| 2026-04-26 10:31 | -42.76263 | 147.41220 | 1862 ft | 156 kts | 139° |
| 2026-04-26 10:31 | -42.77020 | 147.42243 | 1666 ft | 155 kts | 139° |
| 2026-04-26 10:31 | -42.77776 | 147.43266 | 1446 ft | 152 kts | 138° |
| 2026-04-26 10:32 | -42.78527 | 147.44282 | 1241 ft | 150 kts | 137° |
| 2026-04-26 10:32 | -42.79260 | 147.45276 | 1029 ft | 147 kts | 136° |
| 2026-04-26 10:32 | -42.79975 | 147.46233 | 824 ft | 141 kts | 135° |
| 2026-04-26 10:32 | -42.80662 | 147.47166 | 657 ft | 138 kts | 135° |
| 2026-04-26 10:33 | -42.81339 | 147.48066 | 466 ft | 135 kts | 132° |
| 2026-04-26 10:33 | -42.82006 | 147.48976 | 292 ft | 136 kts | 133° |
| 2026-04-26 10:33 | -42.82672 | 147.49894 | 123 ft | 136 kts | 133° |
| 2026-04-26 10:33 | -42.83324 | 147.50781 | 22 ft | 120 kts | 135° |
| 2026-04-26 10:34 | -42.83793 | 147.51422 | 22 ft | 71 kts | 134° |
| 2026-04-26 10:34 | -42.84047 | 147.51770 | 22 ft | 41 kts | 135° |
| 2026-04-26 10:34 | -42.84217 | 147.51999 | 23 ft | 19 kts | 136° |
| 2026-04-26 10:34 | -42.84297 | 147.52070 | 22 ft | 11 kts | 159° |
| 2026-04-26 10:35 | -42.84321 | 147.52123 | 24 ft | 2 kts | 60° |
| 2026-04-26 10:35 | -42.84303 | 147.52117 | 22 ft | 3 kts | 320° |
| 2026-04-26 10:35 | -42.84276 | 147.52077 | 23 ft | 9 kts | 313° |
| 2026-04-26 10:35 | -42.84222 | 147.52001 | 24 ft | 14 kts | 315° |
| 2026-04-26 10:36 | -42.84145 | 147.51896 | 22 ft | 18 kts | 315° |
| 2026-04-26 10:36 | -42.84053 | 147.51772 | 23 ft | 19 kts | 315° |
| 2026-04-26 10:36 | -42.83958 | 147.51642 | 22 ft | 20 kts | 315° |
| 2026-04-26 10:36 | -42.83860 | 147.51510 | 23 ft | 20 kts | 315° |
| 2026-04-26 10:37 | -42.83773 | 147.51364 | 22 ft | 18 kts | 282° |
| 2026-04-26 10:37 | -42.83837 | 147.51230 | 24 ft | 18 kts | 222° |
| 2026-04-26 10:37 | -42.83822 | 147.51088 | 22 ft | 17 kts | 315° |
| 2026-04-26 10:37 | -42.83736 | 147.50971 | 23 ft | 18 kts | 315° |
| 2026-04-26 10:38 | -42.83677 | 147.50873 | 22 ft | 11 kts | 288° |
| 2026-04-26 10:38 | -42.83700 | 147.50768 | 22 ft | 13 kts | 282° |
| 2026-04-26 10:38 | -42.83667 | 147.50704 | 22 ft | 8 kts | 315° |
| 2026-04-26 10:38 | -42.83658 | 147.50657 | 22 ft | 6 kts | 241° |
| 2026-04-26 10:39 | -42.83679 | 147.50630 | 23 ft | 3 kts | 225° |
| 2026-04-26 10:39 | -42.83684 | 147.50622 | 22 ft | 0 kts | 226° |
| 2026-04-26 10:41 | -42.83685 | 147.50622 | 22 ft | 0 kts | 226° |